createdAt,value
2022-09-24T00:01:41.174Z,11.91
2022-09-24T00:04:14.080Z,11.98
2022-09-24T00:06:44.725Z,11.45
2022-09-24T00:09:19.168Z,12.04
2022-09-24T00:11:46.367Z,11.94
2022-09-24T00:14:14.161Z,12.18
2022-09-24T00:16:42.721Z,12.03
2022-09-24T00:19:11.538Z,12.20
2022-09-24T00:21:39.778Z,12.16
2022-09-24T00:24:33.815Z,11.93
2022-09-24T00:27:01.149Z,12.19
2022-09-24T00:29:28.803Z,12.31
2022-09-24T00:31:55.974Z,12.18
2022-09-24T00:34:23.061Z,12.12
2022-09-24T00:36:50.211Z,12.32
2022-09-24T00:39:17.367Z,12.24
2022-09-24T00:41:47.302Z,11.99
2022-09-24T00:44:48.659Z,12.32
2022-09-24T00:47:23.373Z,12.31
2022-09-24T00:49:51.744Z,12.31
2022-09-24T00:52:19.916Z,12.30
2022-09-24T00:54:47.791Z,12.32
2022-09-24T00:57:15.021Z,12.36
2022-09-24T00:59:43.533Z,12.30
2022-09-24T01:02:10.847Z,11.99
2022-09-24T01:04:38.022Z,12.21
2022-09-24T01:07:05.156Z,12.23
2022-09-24T01:09:32.642Z,12.22
2022-09-24T01:12:02.923Z,12.22
2022-09-24T01:14:48.304Z,12.14
2022-09-24T01:17:42.336Z,12.16
2022-09-24T01:20:54.059Z,12.20
2022-09-24T01:23:48.847Z,12.13
2022-09-24T01:26:28.565Z,12.10
2022-09-24T01:29:06.249Z,12.08
2022-09-24T01:31:44.553Z,11.79
2022-09-24T01:34:17.545Z,11.88
2022-09-24T01:36:46.713Z,11.96
2022-09-24T01:39:17.287Z,11.63
2022-09-24T01:41:45.341Z,12.01
2022-09-24T01:44:13.277Z,11.73
2022-09-24T01:46:41.320Z,12.03
2022-09-24T01:49:08.898Z,12.03
2022-09-24T01:51:48.402Z,11.97
2022-09-24T01:54:21.957Z,12.01
2022-09-24T01:56:54.933Z,11.96
2022-09-24T01:59:31.827Z,11.92
2022-09-24T02:02:14.227Z,11.86
2022-09-24T02:04:45.969Z,11.72
2022-09-24T02:07:19.479Z,11.85
2022-09-24T02:09:46.421Z,11.86
2022-09-24T02:12:28.718Z,11.82
2022-09-24T02:15:07.895Z,11.65
2022-09-24T02:17:38.656Z,11.78
2022-09-24T02:20:10.821Z,11.71
2022-09-24T02:22:40.133Z,11.78
2022-09-24T02:25:11.572Z,11.32
2022-09-24T02:27:39.083Z,11.74
2022-09-24T02:30:08.236Z,11.73
2022-09-24T02:32:38.397Z,11.57
2022-09-24T02:35:09.113Z,11.63
2022-09-24T02:37:39.185Z,11.68
2022-09-24T02:40:09.384Z,11.58
2022-09-24T02:42:37.877Z,11.64
2022-09-24T02:45:05.790Z,11.53
2022-09-24T02:47:33.251Z,11.51
2022-09-24T02:50:00.971Z,11.53
2022-09-24T02:52:28.318Z,11.63
2022-09-24T02:54:55.452Z,11.63
2022-09-24T02:57:22.524Z,11.63
2022-09-24T02:59:49.664Z,11.39
2022-09-24T03:02:16.933Z,11.45
2022-09-24T03:04:44.209Z,11.53
2022-09-24T03:07:14.661Z,11.36
2022-09-24T03:09:41.813Z,11.27
2022-09-24T03:12:09.685Z,11.31
2022-09-24T03:14:36.784Z,11.25
2022-09-24T03:17:04.189Z,11.44
2022-09-24T03:19:31.299Z,11.30
2022-09-24T03:21:58.386Z,11.37
2022-09-24T03:24:25.467Z,11.30
2022-09-24T03:26:52.665Z,11.48
2022-09-24T03:29:40.204Z,11.01
2022-09-24T03:32:07.307Z,11.49
2022-09-24T03:34:34.391Z,11.53
2022-09-24T03:37:01.737Z,11.52
2022-09-24T03:39:28.773Z,11.21
2022-09-24T03:41:55.965Z,11.47
2022-09-24T03:44:23.206Z,11.31
2022-09-24T03:46:50.373Z,11.46
2022-09-24T03:49:17.714Z,11.49
2022-09-24T03:51:44.766Z,11.50
2022-09-24T03:54:12.358Z,11.51
2022-09-24T03:56:39.613Z,11.48
2022-09-24T03:59:07.095Z,11.60
2022-09-24T04:01:37.393Z,11.38
2022-09-24T04:04:05.535Z,11.63
2022-09-24T04:06:32.653Z,11.59
2022-09-24T04:09:00.431Z,11.47
2022-09-24T04:11:27.535Z,11.48
2022-09-24T04:13:54.724Z,11.55
2022-09-24T04:16:22.043Z,11.29
2022-09-24T04:18:49.613Z,11.43
2022-09-24T04:21:16.975Z,11.39
2022-09-24T04:23:44.134Z,11.37
2022-09-24T04:26:11.258Z,11.24
2022-09-24T04:28:38.349Z,11.35
2022-09-24T04:31:06.108Z,11.39
2022-09-24T04:33:33.306Z,11.29
2022-09-24T04:36:00.412Z,11.17
2022-09-24T04:38:27.422Z,11.12
2022-09-24T04:40:54.524Z,11.35
2022-09-24T04:43:21.770Z,11.32
2022-09-24T04:45:48.982Z,11.31
2022-09-24T04:48:16.079Z,11.35
2022-09-24T04:50:46.354Z,11.29
2022-09-24T04:53:14.294Z,10.89
2022-09-24T04:55:41.902Z,11.44
2022-09-24T04:58:10.160Z,11.38
2022-09-24T05:00:37.334Z,11.56
2022-09-24T05:03:04.954Z,11.59
2022-09-24T05:05:33.466Z,11.52
2022-09-24T05:08:01.689Z,11.49
2022-09-24T05:10:31.454Z,11.65
2022-09-24T05:12:58.916Z,11.74
2022-09-24T05:15:26.542Z,11.84
2022-09-24T05:17:53.789Z,11.86
2022-09-24T05:20:21.231Z,11.88
2022-09-24T05:22:49.856Z,11.75
2022-09-24T05:25:19.169Z,11.82
2022-09-24T05:27:54.746Z,11.87
2022-09-24T05:30:23.814Z,11.86
2022-09-24T05:32:53.670Z,12.06
2022-09-24T05:35:22.993Z,12.11
2022-09-24T05:37:53.441Z,11.84
2022-09-24T05:40:40.705Z,12.33
2022-09-24T05:43:08.137Z,12.15
2022-09-24T05:45:35.342Z,12.50
2022-09-24T05:48:02.591Z,12.54
2022-09-24T05:50:29.772Z,12.58
2022-09-24T05:52:57.277Z,12.66
2022-09-24T05:55:27.622Z,12.70
2022-09-24T05:58:06.749Z,12.80
2022-09-24T06:00:35.621Z,12.77
2022-09-24T06:03:11.720Z,12.85
2022-09-24T06:05:38.946Z,12.83
2022-09-24T06:08:08.217Z,12.71
2022-09-24T06:10:37.138Z,12.97
2022-09-24T06:13:04.569Z,12.92
2022-09-24T06:15:31.629Z,13.25
2022-09-24T06:17:58.744Z,13.24
2022-09-24T06:20:26.269Z,13.48
2022-09-24T06:22:59.664Z,13.61
2022-09-24T06:25:27.070Z,13.69
2022-09-24T06:28:00.311Z,13.54
2022-09-24T06:30:34.016Z,13.82
2022-09-24T06:33:12.672Z,13.77
2022-09-24T06:35:42.732Z,13.98
2022-09-24T06:38:15.144Z,14.14
2022-09-24T06:40:42.995Z,14.33
2022-09-24T06:43:11.223Z,14.47
2022-09-24T06:45:38.496Z,14.57
2022-09-24T06:48:06.284Z,14.65
2022-09-24T06:50:35.575Z,14.60
2022-09-24T06:53:06.522Z,14.62
2022-09-24T06:55:35.240Z,14.61
2022-09-24T06:58:10.897Z,14.75
2022-09-24T07:00:39.151Z,14.90
2022-09-24T07:03:07.629Z,14.91
2022-09-24T07:05:39.544Z,14.68
2022-09-24T07:08:09.756Z,15.01
2022-09-24T07:10:37.969Z,15.07
2022-09-24T07:13:05.205Z,15.21
2022-09-24T07:15:32.265Z,15.36
2022-09-24T07:17:59.329Z,15.44
2022-09-24T07:20:29.336Z,15.52
2022-09-24T07:22:56.592Z,15.52
2022-09-24T07:25:23.698Z,15.78
2022-09-24T07:27:50.888Z,15.87
2022-09-24T07:30:18.085Z,16.01
2022-09-24T07:32:45.137Z,16.12
2022-09-24T07:35:12.191Z,16.46
2022-09-24T07:37:39.312Z,16.66
2022-09-24T07:40:06.911Z,16.84
2022-09-24T07:46:01.236Z,17.12
2022-09-24T07:48:28.421Z,17.55
2022-09-24T07:50:56.014Z,17.90
2022-09-24T07:53:24.271Z,18.32
2022-09-24T07:55:51.379Z,18.71
2022-09-24T07:58:19.316Z,18.98
2022-09-24T08:00:46.638Z,19.09
2022-09-24T08:12:05.014Z,18.72
2022-09-24T08:21:06.811Z,19.51
2022-09-24T08:23:37.185Z,18.84
2022-09-24T08:26:06.128Z,19.67
2022-09-24T08:28:36.628Z,19.03
2022-09-24T08:31:09.085Z,18.96
2022-09-24T08:33:37.374Z,19.63
2022-09-24T08:36:30.171Z,18.71
2022-09-24T08:39:04.786Z,18.73
2022-09-24T08:42:03.685Z,18.34
2022-09-24T08:45:22.963Z,18.23
2022-09-24T08:48:29.790Z,19.46
2022-09-24T08:51:23.636Z,18.52
2022-09-24T08:54:07.918Z,19.80
2022-09-24T08:56:46.973Z,19.79
2022-09-24T09:00:17.934Z,20.28
2022-09-24T09:03:01.764Z,20.51
2022-09-24T09:05:49.810Z,20.62
2022-09-24T09:08:54.556Z,20.40
2022-09-24T09:11:20.164Z,20.51
2022-09-24T09:13:55.074Z,20.41
2022-09-24T09:16:56.963Z,20.44
2022-09-24T09:19:30.451Z,20.48
2022-09-24T09:22:01.128Z,20.50
2022-09-24T09:24:42.028Z,20.39
2022-09-24T09:27:17.571Z,20.18
2022-09-24T09:29:48.606Z,20.56
2022-09-24T09:32:49.753Z,20.93
2022-09-24T09:35:25.569Z,21.03
2022-09-24T09:38:02.048Z,20.93
2022-09-24T09:40:32.438Z,21.02
2022-09-24T09:43:05.280Z,20.79
2022-09-24T09:45:52.503Z,21.22
2022-09-24T09:48:22.966Z,21.25
2022-09-24T09:50:59.489Z,21.10
2022-09-24T09:53:28.662Z,21.22
2022-09-24T09:56:01.489Z,21.15
2022-09-24T09:58:33.965Z,21.08
2022-09-24T10:01:15.824Z,21.17
2022-09-24T10:03:49.709Z,21.15
2022-09-24T10:06:35.280Z,21.25
2022-09-24T10:09:20.850Z,21.13
2022-09-24T10:11:48.546Z,21.22
2022-09-24T10:14:19.347Z,21.28
2022-09-24T10:16:54.142Z,21.18
2022-09-24T10:19:25.299Z,21.37
2022-09-24T10:21:55.054Z,21.35
2022-09-24T10:24:25.387Z,21.31
2022-09-24T10:26:53.515Z,21.49
2022-09-24T10:29:44.172Z,21.44
2022-09-24T10:32:21.256Z,21.47
2022-09-24T10:35:20.081Z,21.47
2022-09-24T10:37:55.437Z,21.42
2022-09-24T10:40:28.267Z,21.42
2022-09-24T10:43:03.582Z,21.20
2022-09-24T10:45:49.435Z,21.39
2022-09-24T10:48:32.014Z,21.46
2022-09-24T10:51:24.140Z,21.66
2022-09-24T10:54:21.565Z,21.62
2022-09-24T10:56:55.061Z,21.72
2022-09-24T10:59:34.472Z,21.71
2022-09-24T11:02:14.024Z,21.84
2022-09-24T11:04:50.872Z,21.98
2022-09-24T11:07:42.696Z,22.10
2022-09-24T11:10:15.547Z,22.12
2022-09-24T11:13:15.695Z,22.04
2022-09-24T11:15:58.861Z,22.17
2022-09-24T11:18:38.127Z,22.06
2022-09-24T11:21:33.512Z,21.88
2022-09-24T11:24:19.291Z,22.12
2022-09-24T11:27:23.525Z,22.13
2022-09-24T11:29:59.263Z,21.97
2022-09-24T11:32:35.474Z,21.93
2022-09-24T11:35:06.441Z,22.12
2022-09-24T11:37:39.535Z,22.10
2022-09-24T11:40:44.860Z,22.04
2022-09-24T11:43:18.559Z,22.26
2022-09-24T11:45:45.499Z,22.37
2022-09-24T11:48:46.517Z,22.55
2022-09-24T11:51:47.024Z,22.65
2022-09-24T11:54:27.234Z,22.73
2022-09-24T11:57:03.088Z,22.74
2022-09-24T11:59:57.484Z,22.76
2022-09-24T12:02:43.428Z,22.91
2022-09-24T12:05:28.584Z,22.93
2022-09-24T12:08:03.031Z,23.05
2022-09-24T12:10:51.649Z,23.09
2022-09-24T12:13:31.022Z,23.05
2022-09-24T12:16:03.392Z,23.03
2022-09-24T12:18:36.796Z,23.07
2022-09-24T12:21:10.554Z,23.11
2022-09-24T12:23:41.697Z,22.86
2022-09-24T12:26:10.820Z,23.18
2022-09-24T12:29:08.125Z,23.20
2022-09-24T12:32:09.066Z,23.26
2022-09-24T12:35:00.646Z,23.44
2022-09-24T12:37:38.635Z,23.33
2022-09-24T12:40:38.421Z,23.40
2022-09-24T12:43:31.508Z,23.39
2022-09-24T12:46:05.010Z,23.58
2022-09-24T12:48:36.425Z,23.74
2022-09-24T12:51:29.423Z,23.46
2022-09-24T12:54:10.674Z,23.71
2022-09-24T12:57:31.233Z,23.16
2022-09-24T13:00:03.404Z,22.87
2022-09-24T13:03:20.413Z,23.91
2022-09-24T13:06:11.505Z,23.62
2022-09-24T13:09:25.981Z,23.87
2022-09-24T13:17:19.447Z,23.93
2022-09-24T13:20:50.406Z,23.33
2022-09-24T13:23:50.089Z,23.21
2022-09-24T13:26:31.901Z,23.83
2022-09-24T13:36:36.996Z,24.31
2022-09-24T13:39:38.173Z,24.36
2022-09-24T13:42:20.598Z,24.33
2022-09-24T13:44:52.680Z,24.44
2022-09-24T13:47:42.751Z,24.22
2022-09-24T13:50:36.758Z,24.23
2022-09-24T13:53:23.725Z,24.36
2022-09-24T13:55:54.917Z,24.30
2022-09-24T13:58:36.029Z,24.18
2022-09-24T14:01:12.512Z,24.06
2022-09-24T14:03:41.032Z,24.07
2022-09-24T14:06:17.058Z,24.30
2022-09-24T14:08:47.154Z,24.52
2022-09-24T14:11:14.296Z,24.50
2022-09-24T14:13:45.900Z,24.49
2022-09-24T14:16:19.139Z,24.39
2022-09-24T14:18:47.202Z,24.14
2022-09-24T14:21:26.022Z,24.07
2022-09-24T14:24:03.214Z,24.01
2022-09-24T14:26:49.131Z,24.02
2022-09-24T14:29:26.160Z,23.91
2022-09-24T14:31:58.628Z,23.93
2022-09-24T14:34:30.273Z,23.87
2022-09-24T14:37:00.381Z,24.05
2022-09-24T14:39:29.874Z,24.27
2022-09-24T14:41:58.313Z,24.07
2022-09-24T14:44:28.288Z,23.97
2022-09-24T14:46:59.714Z,24.07
2022-09-24T14:49:44.284Z,24.08
2022-09-24T14:52:27.911Z,24.02
2022-09-24T14:55:15.662Z,24.12
2022-09-24T14:57:48.259Z,24.02
2022-09-24T15:00:24.802Z,24.04
2022-09-24T15:02:57.726Z,24.07
2022-09-24T15:05:28.169Z,24.00
2022-09-24T15:08:23.074Z,24.24
2022-09-24T15:10:59.692Z,24.07
2022-09-24T15:13:31.513Z,24.04
2022-09-24T15:16:21.603Z,24.07
2022-09-24T15:18:58.615Z,24.06
2022-09-24T15:21:27.848Z,24.14
2022-09-24T15:23:55.845Z,23.89
2022-09-24T15:26:27.018Z,23.85
2022-09-24T15:28:56.524Z,23.83
2022-09-24T15:31:24.351Z,23.88
2022-09-24T15:33:52.354Z,23.76
2022-09-24T15:36:21.374Z,23.82
2022-09-24T15:38:50.294Z,23.65
2022-09-24T15:41:18.073Z,23.62
2022-09-24T15:43:45.450Z,23.61
2022-09-24T15:46:12.599Z,23.67
2022-09-24T15:48:39.815Z,23.67
2022-09-24T15:51:11.783Z,23.64
2022-09-24T15:53:41.533Z,23.32
2022-09-24T15:56:08.625Z,23.56
2022-09-24T15:58:35.926Z,23.46
2022-09-24T16:01:03.743Z,23.43
2022-09-24T16:03:32.581Z,23.40
2022-09-24T16:06:00.521Z,23.32
2022-09-24T16:08:27.849Z,23.22
2022-09-24T16:10:55.017Z,23.28
2022-09-24T16:13:26.367Z,23.25
2022-09-24T16:15:53.498Z,23.22
2022-09-24T16:23:57.320Z,22.94
2022-09-24T16:26:24.672Z,23.04
2022-09-24T16:28:51.895Z,22.90
2022-09-24T16:31:19.819Z,23.00
2022-09-24T16:33:47.263Z,22.91
2022-09-24T16:36:14.478Z,22.87
2022-09-24T16:38:41.673Z,22.78
2022-09-24T16:41:10.588Z,22.75
2022-09-24T16:43:37.779Z,22.37
2022-09-24T16:46:09.490Z,22.78
2022-09-24T16:48:37.119Z,22.72
2022-09-24T16:51:09.512Z,22.72
2022-09-24T16:53:37.219Z,22.67
2022-09-24T16:56:15.663Z,22.64
2022-09-24T16:58:44.969Z,22.62
2022-09-24T17:01:18.961Z,22.52
2022-09-24T17:03:54.794Z,22.41
2022-09-24T17:06:30.556Z,22.32
2022-09-24T17:09:16.637Z,22.35
2022-09-24T17:11:46.821Z,22.04
2022-09-24T17:14:14.973Z,22.29
2022-09-24T17:16:42.757Z,22.24
2022-09-24T17:19:11.948Z,22.12
2022-09-24T17:21:40.871Z,22.20
2022-09-24T17:24:08.942Z,22.22
2022-09-24T17:26:36.215Z,21.59
2022-09-24T17:29:04.359Z,22.13
2022-09-24T17:31:31.826Z,22.06
2022-09-24T17:34:01.038Z,22.06
2022-09-24T17:36:29.655Z,21.82
2022-09-24T17:38:59.308Z,22.08
2022-09-24T17:41:28.788Z,22.06
2022-09-24T17:44:00.136Z,22.09
2022-09-24T17:46:30.051Z,22.12
2022-09-24T17:48:59.571Z,22.09
2022-09-24T17:51:36.358Z,22.05
2022-09-24T17:54:09.494Z,22.02
2022-09-24T17:56:40.427Z,21.95
2022-09-24T17:59:09.519Z,22.05
2022-09-24T18:01:37.837Z,22.05
2022-09-24T18:04:07.707Z,22.03
2022-09-24T18:06:38.089Z,21.93
2022-09-24T18:09:08.842Z,21.86
2022-09-24T18:11:44.314Z,21.79
2022-09-24T18:14:14.953Z,21.37
2022-09-24T18:16:42.645Z,21.29
2022-09-24T18:19:11.561Z,21.80
2022-09-24T18:21:39.020Z,21.79
2022-09-24T18:24:06.575Z,21.64
2022-09-24T18:26:39.342Z,21.65
2022-09-24T18:29:12.026Z,21.76
2022-09-24T18:31:39.581Z,21.77
2022-09-24T18:34:09.068Z,21.61
2022-09-24T18:36:38.212Z,21.36
2022-09-24T18:39:08.530Z,21.09
2022-09-24T18:41:37.079Z,21.03
2022-09-24T18:44:04.619Z,21.05
2022-09-24T18:46:33.280Z,21.04
2022-09-24T18:49:02.111Z,21.02
2022-09-24T18:51:34.841Z,20.99
2022-09-24T18:54:04.687Z,21.08
2022-09-24T18:56:32.629Z,21.21
2022-09-24T18:59:09.386Z,21.16
2022-09-24T19:01:39.561Z,20.98
2022-09-24T19:04:11.006Z,21.20
2022-09-24T19:06:42.076Z,21.14
2022-09-24T19:09:11.633Z,21.08
2022-09-24T19:11:39.330Z,21.18
2022-09-24T19:14:06.716Z,21.15
2022-09-24T19:16:34.094Z,20.90
2022-09-24T19:19:02.243Z,21.08
2022-09-24T19:21:29.686Z,20.75
2022-09-24T19:23:58.111Z,20.75
2022-09-24T19:26:30.905Z,20.72
2022-09-24T19:28:58.234Z,20.80
2022-09-24T19:31:31.705Z,20.78
2022-09-24T19:34:03.180Z,20.89
2022-09-24T19:36:32.771Z,20.82
2022-09-24T19:39:01.566Z,20.36
2022-09-24T19:41:29.170Z,20.66
2022-09-24T19:43:58.661Z,20.71
2022-09-24T19:46:27.749Z,20.64
2022-09-24T19:48:56.486Z,20.69
2022-09-24T19:51:29.114Z,20.20
2022-09-24T19:53:59.125Z,20.16
2022-09-24T19:56:26.932Z,20.26
2022-09-24T19:58:56.254Z,20.24
2022-09-24T20:01:28.018Z,20.27
2022-09-24T20:03:57.166Z,20.21
2022-09-24T20:06:28.636Z,20.23
2022-09-24T20:08:57.283Z,20.16
2022-09-24T20:11:25.753Z,20.32
2022-09-24T20:13:55.767Z,20.33
2022-09-24T20:16:26.448Z,20.26
2022-09-24T20:18:57.728Z,20.35
2022-09-24T20:21:27.847Z,20.46
2022-09-24T20:23:57.552Z,19.96
2022-09-24T20:26:44.047Z,20.52
2022-09-24T20:29:12.611Z,20.32
2022-09-24T20:31:51.986Z,20.21
2022-09-24T20:34:22.109Z,20.03
2022-09-24T20:36:49.470Z,20.02
2022-09-24T20:39:17.453Z,20.15
2022-09-24T20:41:45.474Z,20.16
2022-09-24T20:44:13.363Z,20.05
2022-09-24T20:46:40.704Z,19.87
2022-09-24T20:49:08.047Z,19.77
2022-09-24T20:51:35.254Z,19.09
2022-09-24T20:54:02.772Z,19.74
2022-09-24T20:56:33.190Z,19.53
2022-09-24T20:59:01.294Z,19.56
2022-09-24T21:01:29.041Z,19.72
2022-09-24T21:04:30.287Z,19.69
2022-09-24T21:06:57.412Z,19.76
2022-09-24T21:09:24.556Z,19.81
2022-09-24T21:11:54.526Z,19.63
2022-09-24T21:14:22.276Z,19.64
2022-09-24T21:16:49.395Z,19.41
2022-09-24T21:19:16.566Z,19.91
2022-09-24T21:21:43.869Z,19.55
2022-09-24T21:24:14.048Z,19.21
2022-09-24T21:26:42.352Z,18.53
2022-09-24T21:29:17.776Z,18.08
2022-09-24T21:31:46.722Z,17.89
2022-09-24T21:34:16.082Z,17.59
2022-09-24T21:36:45.824Z,17.30
2022-09-24T21:39:13.129Z,16.99
2022-09-24T21:41:40.456Z,16.29
2022-09-24T21:44:10.199Z,16.42
2022-09-24T21:46:37.458Z,16.21
2022-09-24T21:49:04.692Z,16.03
2022-09-24T21:51:31.809Z,15.85
2022-09-24T21:54:04.368Z,15.90
2022-09-24T21:56:32.869Z,15.64
2022-09-24T21:59:00.015Z,15.62
2022-09-24T22:01:29.903Z,15.03
2022-09-24T22:03:59.380Z,14.35
2022-09-24T22:06:29.088Z,14.18
2022-09-24T22:08:58.865Z,14.53
2022-09-24T22:11:26.478Z,14.42
2022-09-24T22:13:54.675Z,14.01
2022-09-24T22:16:22.901Z,13.93
2022-09-24T22:18:50.125Z,13.99
2022-09-24T22:21:17.383Z,13.90
2022-09-24T22:23:45.827Z,13.81
2022-09-24T22:26:14.806Z,13.96
2022-09-24T22:28:42.854Z,13.91
2022-09-24T22:31:12.558Z,13.86
2022-09-24T22:34:11.936Z,13.91
2022-09-24T22:36:39.191Z,13.96
2022-09-24T22:39:07.291Z,13.94
2022-09-24T22:41:40.173Z,13.96
2022-09-24T22:44:07.827Z,13.95
2022-09-24T22:46:39.146Z,14.04
2022-09-24T22:49:06.388Z,13.94
2022-09-24T22:51:34.056Z,14.06
2022-09-24T22:54:01.383Z,13.95
2022-09-24T22:56:30.183Z,13.70
2022-09-24T22:58:59.278Z,13.85
2022-09-24T23:01:32.438Z,13.81
2022-09-24T23:04:01.000Z,13.82
2022-09-24T23:06:28.655Z,13.82
2022-09-24T23:08:55.933Z,13.84
2022-09-24T23:11:24.586Z,13.84
2022-09-24T23:13:54.981Z,13.61
2022-09-24T23:16:27.954Z,13.78
2022-09-24T23:18:57.521Z,13.81
2022-09-24T23:21:26.984Z,13.87
2022-09-24T23:23:56.126Z,13.90
2022-09-24T23:26:25.257Z,13.90
2022-09-24T23:28:54.463Z,13.86
2022-09-24T23:31:27.523Z,13.34
2022-09-24T23:33:56.552Z,13.44
2022-09-24T23:36:24.656Z,13.11
2022-09-24T23:38:53.035Z,13.13
2022-09-24T23:41:21.807Z,13.29
2022-09-24T23:43:49.767Z,13.23
2022-09-24T23:46:17.397Z,13.26
2022-09-24T23:48:44.779Z,13.11
2022-09-24T23:51:12.083Z,12.59
2022-09-24T23:53:39.337Z,12.96
2022-09-24T23:56:07.442Z,12.89
2022-09-24T23:58:35.112Z,12.84
